createdAt,value
2023-09-18T00:00:39.000Z,266.0
2023-09-18T00:01:39.000Z,672.0
2023-09-18T00:02:38.000Z,1221.0
2023-09-18T00:03:39.000Z,1344.0
2023-09-18T00:04:38.000Z,2102.0
2023-09-18T00:05:39.000Z,2914.0
2023-09-18T00:06:39.000Z,3474.0
2023-09-18T00:07:38.000Z,4124.0
2023-09-18T00:08:39.000Z,5232.0
2023-09-18T00:09:38.000Z,6125.0
2023-09-18T00:10:38.000Z,7389.0
2023-09-18T00:11:39.000Z,8730.0
2023-09-18T00:12:38.000Z,9674.0
2023-09-18T00:13:39.000Z,8328.0
2023-09-18T00:14:39.000Z,6626.0
2023-09-18T00:15:38.000Z,5273.0
2023-09-18T00:16:39.000Z,5412.0
2023-09-18T00:17:38.000Z,6071.0
2023-09-18T00:18:39.000Z,6634.0
2023-09-18T00:19:39.000Z,7000.0
2023-09-18T00:20:38.000Z,1846.0
2023-09-18T00:21:39.000Z,1987.0
2023-09-18T00:22:38.000Z,2705.0
2023-09-18T00:23:39.000Z,3323.0
2023-09-18T00:24:39.000Z,3948.0
2023-09-18T00:25:38.000Z,4566.0
2023-09-18T00:26:39.000Z,4796.0
2023-09-18T00:27:39.000Z,6394.0
2023-09-18T00:28:38.000Z,7794.0
2023-09-18T00:29:39.000Z,9914.0
2023-09-18T00:30:38.000Z,10643.0
2023-09-18T00:31:39.000Z,6206.0
2023-09-18T00:32:39.000Z,3050.0
2023-09-18T00:33:38.000Z,3301.0
2023-09-18T00:34:39.000Z,3106.0
2023-09-18T00:35:38.000Z,3386.0
2023-09-18T00:36:38.000Z,4051.0
2023-09-18T00:37:39.000Z,1645.0
2023-09-18T00:38:38.000Z,2204.0
2023-09-18T00:39:39.000Z,2570.0
2023-09-18T00:40:39.000Z,3284.0
2023-09-18T00:41:38.000Z,3888.0
2023-09-18T00:42:39.000Z,5043.0
2023-09-18T00:43:38.000Z,6040.0
2023-09-18T00:44:39.000Z,5316.0
2023-09-18T00:45:39.000Z,5373.0
2023-09-18T00:46:38.000Z,6509.0
2023-09-18T00:47:39.000Z,8400.0
2023-09-18T00:48:38.000Z,10446.0
2023-09-18T00:49:38.000Z,14455.0
2023-09-18T00:50:39.000Z,16000.0
2023-09-18T00:51:38.000Z,16000.0
2023-09-18T00:52:39.000Z,16000.0
2023-09-18T00:53:39.000Z,16000.0
2023-09-18T00:54:38.000Z,16000.0
2023-09-18T00:55:39.000Z,16000.0
2023-09-18T00:56:38.000Z,16000.0
2023-09-18T00:57:38.000Z,16000.0
2023-09-18T00:58:39.000Z,16000.0
2023-09-18T00:59:38.000Z,16000.0
2023-09-18T01:00:38.000Z,16000.0
2023-09-18T01:01:39.000Z,16000.0
2023-09-18T01:02:38.000Z,16000.0
2023-09-18T01:03:39.000Z,16000.0
2023-09-18T01:04:39.000Z,16000.0
2023-09-18T01:05:38.000Z,16000.0
2023-09-18T01:06:39.000Z,16000.0
2023-09-18T01:07:38.000Z,16000.0
2023-09-18T01:08:39.000Z,16000.0
2023-09-18T01:09:39.000Z,16000.0
2023-09-18T01:10:38.000Z,16000.0
2023-09-18T01:11:39.000Z,16000.0
2023-09-18T01:12:38.000Z,16000.0
2023-09-18T01:13:38.000Z,16000.0
2023-09-18T01:14:39.000Z,16000.0
2023-09-18T01:15:38.000Z,16000.0
2023-09-18T01:16:39.000Z,16000.0
2023-09-18T01:17:39.000Z,16000.0
2023-09-18T01:18:38.000Z,16000.0
2023-09-18T01:19:39.000Z,16000.0
2023-09-18T01:20:38.000Z,16000.0
2023-09-18T01:21:39.000Z,16000.0
2023-09-18T01:22:39.000Z,16000.0
2023-09-18T01:23:38.000Z,16000.0
2023-09-18T01:24:39.000Z,16000.0
2023-09-18T01:25:38.000Z,16000.0
2023-09-18T01:26:38.000Z,16000.0
2023-09-18T01:27:39.000Z,16000.0
2023-09-18T01:28:38.000Z,16000.0
2023-09-18T01:29:39.000Z,16000.0
2023-09-18T01:30:39.000Z,16000.0
2023-09-18T01:31:38.000Z,16000.0
2023-09-18T01:32:39.000Z,16000.0
2023-09-18T01:33:38.000Z,16000.0
2023-09-18T01:34:39.000Z,16000.0
2023-09-18T01:35:39.000Z,16000.0
2023-09-18T01:36:38.000Z,16000.0
2023-09-18T01:37:39.000Z,16000.0
2023-09-18T01:38:38.000Z,16000.0
2023-09-18T01:39:38.000Z,16000.0
2023-09-18T01:40:39.000Z,16000.0
2023-09-18T01:41:38.000Z,16000.0
2023-09-18T01:42:39.000Z,16000.0
2023-09-18T01:43:39.000Z,16000.0
2023-09-18T01:44:38.000Z,16000.0
2023-09-18T01:45:39.000Z,16000.0
2023-09-18T01:46:38.000Z,16000.0
2023-09-18T01:47:39.000Z,16000.0
2023-09-18T01:48:39.000Z,16000.0
2023-09-18T01:49:38.000Z,16000.0
2023-09-18T01:50:39.000Z,16000.0
2023-09-18T01:51:38.000Z,16000.0
2023-09-18T01:52:38.000Z,16000.0
2023-09-18T01:53:39.000Z,16000.0
2023-09-18T01:54:38.000Z,16000.0
2023-09-18T01:55:39.000Z,16000.0
2023-09-18T01:56:39.000Z,16000.0
2023-09-18T01:57:38.000Z,16000.0
2023-09-18T01:58:39.000Z,16000.0
2023-09-18T01:59:39.000Z,16000.0
2023-09-18T02:00:38.000Z,16000.0
2023-09-18T02:01:39.000Z,16000.0
2023-09-18T02:02:38.000Z,16000.0
2023-09-18T02:04:39.000Z,16000.0
2023-09-18T02:05:38.000Z,16000.0
2023-09-18T02:06:39.000Z,16000.0
2023-09-18T02:07:39.000Z,16000.0
2023-09-18T02:08:38.000Z,16000.0
2023-09-18T02:09:39.000Z,16000.0
2023-09-18T02:10:38.000Z,16000.0
2023-09-18T02:11:39.000Z,16000.0
2023-09-18T02:12:39.000Z,16000.0
2023-09-18T02:13:38.000Z,16000.0
2023-09-18T02:14:39.000Z,16000.0
2023-09-18T02:15:38.000Z,16000.0
2023-09-18T02:16:38.000Z,16000.0
2023-09-18T02:17:39.000Z,16000.0
2023-09-18T02:18:38.000Z,16000.0
2023-09-18T02:19:39.000Z,16000.0
2023-09-18T02:20:39.000Z,16000.0
2023-09-18T02:21:38.000Z,16000.0
2023-09-18T02:22:39.000Z,16000.0
2023-09-18T02:23:38.000Z,16000.0
2023-09-18T02:24:39.000Z,16000.0
2023-09-18T02:25:39.000Z,16000.0
2023-09-18T02:26:38.000Z,16000.0
2023-09-18T02:27:39.000Z,16000.0
2023-09-18T02:28:39.000Z,16000.0
2023-09-18T02:29:38.000Z,16000.0
2023-09-18T02:30:39.000Z,16000.0
2023-09-18T02:31:38.000Z,16000.0
2023-09-18T02:32:39.000Z,16000.0
2023-09-18T02:33:39.000Z,16000.0
2023-09-18T02:34:38.000Z,16000.0
2023-09-18T02:35:39.000Z,16000.0
2023-09-18T02:36:38.000Z,16000.0
2023-09-18T02:37:39.000Z,16000.0
2023-09-18T02:38:39.000Z,16000.0
2023-09-18T02:39:38.000Z,16000.0
2023-09-18T02:40:39.000Z,16000.0
2023-09-18T02:41:38.000Z,16000.0
2023-09-18T02:42:38.000Z,16000.0
2023-09-18T02:43:39.000Z,16000.0
2023-09-18T02:44:38.000Z,16000.0
2023-09-18T02:45:39.000Z,16000.0
2023-09-18T02:46:39.000Z,16000.0
2023-09-18T02:47:38.000Z,16000.0
2023-09-18T02:48:39.000Z,16000.0
2023-09-18T02:49:38.000Z,16000.0
2023-09-18T02:50:39.000Z,16000.0
2023-09-18T02:51:39.000Z,16000.0
2023-09-18T02:52:38.000Z,16000.0
2023-09-18T02:53:39.000Z,16000.0
2023-09-18T02:54:39.000Z,16000.0
2023-09-18T02:55:38.000Z,16000.0
2023-09-18T02:56:39.000Z,16000.0
2023-09-18T02:57:39.000Z,16000.0
2023-09-18T02:58:38.000Z,16000.0
2023-09-18T02:59:39.000Z,16000.0
2023-09-18T03:00:38.000Z,16000.0
2023-09-18T03:01:39.000Z,16000.0
2023-09-18T03:02:39.000Z,16000.0
2023-09-18T03:03:38.000Z,16000.0
2023-09-18T03:04:39.000Z,16000.0
2023-09-18T03:05:39.000Z,16000.0
2023-09-18T03:06:38.000Z,16000.0
2023-09-18T03:07:39.000Z,16000.0
2023-09-18T03:08:38.000Z,16000.0
2023-09-18T03:09:39.000Z,16000.0
2023-09-18T03:10:39.000Z,16000.0
2023-09-18T03:11:38.000Z,16000.0
2023-09-18T03:12:39.000Z,16000.0
2023-09-18T03:13:38.000Z,16000.0
2023-09-18T03:14:38.000Z,16000.0
2023-09-18T03:15:39.000Z,16000.0
2023-09-18T03:16:38.000Z,16000.0
2023-09-18T03:17:39.000Z,16000.0
2023-09-18T03:18:38.000Z,16000.0
2023-09-18T03:19:38.000Z,16000.0
2023-09-18T03:20:39.000Z,16000.0
2023-09-18T03:21:38.000Z,16000.0
2023-09-18T03:22:39.000Z,16000.0
2023-09-18T03:23:39.000Z,16000.0
2023-09-18T03:24:38.000Z,16000.0
2023-09-18T03:25:39.000Z,16000.0
2023-09-18T03:26:38.000Z,16000.0
2023-09-18T03:27:39.000Z,16000.0
2023-09-18T03:28:39.000Z,16000.0
2023-09-18T03:29:38.000Z,16000.0
2023-09-18T03:30:39.000Z,16000.0
2023-09-18T03:31:39.000Z,16000.0
2023-09-18T03:32:38.000Z,16000.0
2023-09-18T03:33:39.000Z,16000.0
2023-09-18T03:34:38.000Z,16000.0
2023-09-18T03:35:39.000Z,16000.0
2023-09-18T03:36:39.000Z,16000.0
2023-09-18T03:37:38.000Z,16000.0
2023-09-18T03:38:39.000Z,16000.0
2023-09-18T03:39:38.000Z,16000.0
2023-09-18T03:40:38.000Z,16000.0
2023-09-18T03:41:39.000Z,16000.0
2023-09-18T03:42:38.000Z,16000.0
2023-09-18T03:43:39.000Z,16000.0
2023-09-18T03:44:38.000Z,16000.0
2023-09-18T03:45:38.000Z,16000.0
2023-09-18T03:46:39.000Z,16000.0
2023-09-18T03:47:38.000Z,16000.0
2023-09-18T03:48:39.000Z,16000.0
2023-09-18T03:49:39.000Z,16000.0
2023-09-18T03:50:38.000Z,16000.0
2023-09-18T03:51:39.000Z,16000.0
2023-09-18T03:52:38.000Z,16000.0
2023-09-18T03:53:38.000Z,16000.0
2023-09-18T03:54:39.000Z,16000.0
2023-09-18T03:55:38.000Z,16000.0
2023-09-18T03:56:39.000Z,16000.0
2023-09-18T03:57:39.000Z,16000.0
2023-09-18T03:58:38.000Z,16000.0
2023-09-18T03:59:39.000Z,16000.0
2023-09-18T04:00:39.000Z,16000.0
2023-09-18T04:01:38.000Z,16000.0
2023-09-18T04:02:39.000Z,16000.0
2023-09-18T04:03:38.000Z,16000.0
2023-09-18T04:04:38.000Z,16000.0
2023-09-18T04:05:39.000Z,16000.0
2023-09-18T04:06:38.000Z,16000.0
2023-09-18T04:07:39.000Z,16000.0
2023-09-18T04:08:39.000Z,16000.0
2023-09-18T04:09:38.000Z,16000.0
2023-09-18T04:10:39.000Z,16000.0
2023-09-18T04:11:38.000Z,16000.0
2023-09-18T04:12:39.000Z,16000.0
2023-09-18T04:13:39.000Z,16000.0
2023-09-18T04:14:38.000Z,16000.0
2023-09-18T04:15:39.000Z,16000.0
2023-09-18T04:16:38.000Z,16000.0
2023-09-18T04:17:38.000Z,16000.0
2023-09-18T04:18:39.000Z,16000.0
2023-09-18T04:19:38.000Z,16000.0
2023-09-18T04:20:39.000Z,16000.0
2023-09-18T04:21:39.000Z,16000.0
2023-09-18T04:22:38.000Z,16000.0
2023-09-18T04:23:39.000Z,16000.0
2023-09-18T04:24:38.000Z,16000.0
2023-09-18T04:25:38.000Z,16000.0
2023-09-18T04:26:39.000Z,16000.0
2023-09-18T04:27:38.000Z,16000.0
2023-09-18T04:28:39.000Z,16000.0
2023-09-18T04:29:38.000Z,16000.0
2023-09-18T04:30:38.000Z,16000.0
2023-09-18T04:31:39.000Z,16000.0
2023-09-18T04:32:38.000Z,16000.0
2023-09-18T04:33:39.000Z,16000.0
2023-09-18T04:34:39.000Z,16000.0
2023-09-18T04:35:38.000Z,16000.0
2023-09-18T04:36:39.000Z,16000.0
2023-09-18T04:37:38.000Z,16000.0
2023-09-18T04:38:39.000Z,16000.0
2023-09-18T04:39:39.000Z,16000.0
2023-09-18T04:40:38.000Z,16000.0
2023-09-18T04:41:39.000Z,16000.0
2023-09-18T04:42:38.000Z,16000.0
2023-09-18T04:43:38.000Z,16000.0
2023-09-18T04:44:39.000Z,16000.0
2023-09-18T04:45:38.000Z,16000.0
2023-09-18T04:46:39.000Z,16000.0
2023-09-18T04:47:39.000Z,16000.0
2023-09-18T04:48:38.000Z,16000.0
2023-09-18T04:49:39.000Z,16000.0
2023-09-18T04:50:38.000Z,16000.0
2023-09-18T04:51:38.000Z,16000.0
2023-09-18T04:52:39.000Z,16000.0
2023-09-18T04:53:38.000Z,16000.0
2023-09-18T04:54:39.000Z,16000.0
2023-09-18T04:55:38.000Z,16000.0
2023-09-18T04:56:38.000Z,16000.0
2023-09-18T04:57:39.000Z,16000.0
2023-09-18T04:58:39.000Z,16000.0
2023-09-18T04:59:38.000Z,16000.0
2023-09-18T05:00:39.000Z,16000.0
2023-09-18T05:01:38.000Z,16000.0
2023-09-18T05:02:38.000Z,16000.0
2023-09-18T05:03:39.000Z,16000.0
2023-09-18T05:04:38.000Z,16000.0
2023-09-18T05:05:39.000Z,16000.0
2023-09-18T05:06:39.000Z,16000.0
2023-09-18T05:07:38.000Z,16000.0
2023-09-18T05:08:39.000Z,16000.0
2023-09-18T05:09:38.000Z,16000.0
2023-09-18T05:10:39.000Z,16000.0
2023-09-18T05:11:39.000Z,16000.0
2023-09-18T05:12:38.000Z,16000.0
2023-09-18T05:13:39.000Z,16000.0
2023-09-18T05:14:38.000Z,16000.0
2023-09-18T05:15:38.000Z,16000.0
2023-09-18T05:16:39.000Z,16000.0
2023-09-18T05:17:38.000Z,16000.0
2023-09-18T05:18:39.000Z,16000.0
2023-09-18T05:19:39.000Z,16000.0
2023-09-18T05:20:38.000Z,16000.0
2023-09-18T05:21:39.000Z,16000.0
2023-09-18T05:22:38.000Z,16000.0
2023-09-18T05:23:39.000Z,16000.0
2023-09-18T05:24:39.000Z,16000.0
2023-09-18T05:25:38.000Z,16000.0
2023-09-18T05:26:39.000Z,16000.0
2023-09-18T05:27:38.000Z,16000.0
2023-09-18T05:28:38.000Z,16000.0
2023-09-18T05:29:39.000Z,16000.0
2023-09-18T05:30:38.000Z,16000.0
2023-09-18T05:31:39.000Z,16000.0
2023-09-18T05:32:39.000Z,16000.0
2023-09-18T05:33:38.000Z,16000.0
2023-09-18T05:34:39.000Z,16000.0
2023-09-18T05:35:38.000Z,16000.0
2023-09-18T05:36:38.000Z,16000.0
2023-09-18T05:37:39.000Z,16000.0
2023-09-18T05:38:38.000Z,16000.0
2023-09-18T05:39:39.000Z,16000.0
2023-09-18T05:40:38.000Z,16000.0
2023-09-18T05:41:38.000Z,16000.0
2023-09-18T05:42:39.000Z,16000.0
2023-09-18T05:43:38.000Z,16000.0
2023-09-18T05:44:39.000Z,16000.0
2023-09-18T05:45:39.000Z,16000.0
2023-09-18T05:46:38.000Z,16000.0
2023-09-18T05:47:39.000Z,16000.0
2023-09-18T05:48:38.000Z,16000.0
2023-09-18T05:49:39.000Z,16000.0
2023-09-18T05:50:39.000Z,16000.0
2023-09-18T05:51:38.000Z,16000.0
2023-09-18T05:52:39.000Z,16000.0
2023-09-18T05:53:38.000Z,16000.0
2023-09-18T05:54:38.000Z,16000.0
2023-09-18T05:55:39.000Z,16000.0
2023-09-18T05:56:38.000Z,16000.0
2023-09-18T05:57:38.000Z,16000.0
2023-09-18T05:58:39.000Z,16000.0
2023-09-18T05:59:38.000Z,16000.0
2023-09-18T06:00:39.000Z,16000.0
2023-09-18T06:01:39.000Z,16000.0
2023-09-18T06:02:38.000Z,16000.0
2023-09-18T06:03:39.000Z,16000.0
2023-09-18T06:04:38.000Z,16000.0
2023-09-18T06:05:38.000Z,16000.0
2023-09-18T06:06:39.000Z,16000.0
2023-09-18T06:07:38.000Z,16000.0
2023-09-18T06:08:39.000Z,16000.0
2023-09-18T06:09:39.000Z,16000.0
2023-09-18T06:10:38.000Z,16000.0
2023-09-18T06:11:39.000Z,16000.0
2023-09-18T06:12:38.000Z,16000.0
2023-09-18T06:13:38.000Z,16000.0
2023-09-18T06:14:39.000Z,16000.0
2023-09-18T06:15:38.000Z,16000.0
2023-09-18T06:16:39.000Z,16000.0
2023-09-18T06:17:38.000Z,16000.0
2023-09-18T06:18:38.000Z,16000.0
2023-09-18T06:19:39.000Z,16000.0
2023-09-18T06:20:38.000Z,16000.0
2023-09-18T06:21:39.000Z,16000.0
2023-09-18T06:22:39.000Z,16000.0
2023-09-18T06:23:38.000Z,16000.0
2023-09-18T06:24:39.000Z,16000.0
2023-09-18T06:25:38.000Z,16000.0
2023-09-18T06:26:38.000Z,16000.0
2023-09-18T06:27:39.000Z,16000.0
2023-09-18T06:28:38.000Z,16000.0
2023-09-18T06:29:39.000Z,16000.0
2023-09-18T06:30:38.000Z,16000.0
2023-09-18T06:31:38.000Z,16000.0
2023-09-18T06:32:39.000Z,16000.0
2023-09-18T06:33:38.000Z,16000.0
2023-09-18T06:34:39.000Z,16000.0
2023-09-18T06:35:39.000Z,16000.0
2023-09-18T06:36:38.000Z,16000.0
2023-09-18T06:37:39.000Z,16000.0
2023-09-18T06:38:38.000Z,16000.0
2023-09-18T06:39:38.000Z,16000.0
2023-09-18T06:40:39.000Z,16000.0
2023-09-18T06:41:38.000Z,16000.0
2023-09-18T06:42:39.000Z,16000.0
2023-09-18T06:43:38.000Z,16000.0
2023-09-18T06:44:38.000Z,16000.0
2023-09-18T06:45:39.000Z,16000.0
2023-09-18T06:46:38.000Z,16000.0
2023-09-18T06:47:39.000Z,16000.0
2023-09-18T06:48:39.000Z,16000.0
2023-09-18T06:49:38.000Z,16000.0
2023-09-18T06:50:39.000Z,16000.0
2023-09-18T06:51:38.000Z,16000.0
2023-09-18T06:52:38.000Z,16000.0
2023-09-18T06:53:39.000Z,16000.0
2023-09-18T06:54:38.000Z,16000.0
2023-09-18T06:55:39.000Z,16000.0
2023-09-18T06:56:38.000Z,16000.0
2023-09-18T06:57:38.000Z,16000.0
2023-09-18T06:58:39.000Z,16000.0
2023-09-18T06:59:38.000Z,16000.0
2023-09-18T07:00:38.000Z,16000.0
2023-09-18T07:01:39.000Z,16000.0
2023-09-18T07:02:38.000Z,16000.0
2023-09-18T07:03:38.000Z,16000.0
2023-09-18T07:04:39.000Z,16000.0
2023-09-18T07:05:38.000Z,16000.0
2023-09-18T07:06:39.000Z,16000.0
2023-09-18T07:07:38.000Z,16000.0
2023-09-18T07:08:38.000Z,16000.0
2023-09-18T07:09:39.000Z,16000.0
2023-09-18T07:10:38.000Z,16000.0
2023-09-18T07:11:39.000Z,16000.0
2023-09-18T07:12:39.000Z,16000.0
2023-09-18T07:13:38.000Z,16000.0
2023-09-18T07:14:39.000Z,16000.0
2023-09-18T07:15:38.000Z,16000.0
2023-09-18T07:16:38.000Z,16000.0
2023-09-18T07:17:39.000Z,16000.0
2023-09-18T07:18:38.000Z,16000.0
2023-09-18T07:19:39.000Z,16000.0
2023-09-18T07:21:38.000Z,16000.0
2023-09-18T07:22:39.000Z,16000.0
2023-09-18T07:23:38.000Z,16000.0
2023-09-18T07:24:39.000Z,16000.0
2023-09-18T07:25:39.000Z,16000.0
2023-09-18T07:26:38.000Z,16000.0
2023-09-18T07:27:39.000Z,16000.0
2023-09-18T07:28:38.000Z,16000.0
2023-09-18T07:29:38.000Z,16000.0
2023-09-18T07:30:39.000Z,16000.0
2023-09-18T07:31:38.000Z,16000.0
2023-09-18T07:32:39.000Z,16000.0
2023-09-18T07:33:38.000Z,16000.0
2023-09-18T07:34:38.000Z,16000.0
2023-09-18T07:35:39.000Z,16000.0
2023-09-18T07:36:38.000Z,16000.0
2023-09-18T07:37:39.000Z,16000.0
2023-09-18T07:38:39.000Z,16000.0
2023-09-18T07:39:38.000Z,16000.0
2023-09-18T07:40:39.000Z,16000.0
2023-09-18T07:41:38.000Z,16000.0
2023-09-18T07:42:38.000Z,16000.0
2023-09-18T07:43:39.000Z,16000.0
2023-09-18T07:44:38.000Z,16000.0
2023-09-18T07:45:39.000Z,16000.0
2023-09-18T07:46:38.000Z,16000.0
2023-09-18T07:47:38.000Z,16000.0
2023-09-18T07:48:39.000Z,16000.0
2023-09-18T07:49:38.000Z,16000.0
2023-09-18T07:50:39.000Z,16000.0
2023-09-18T07:51:39.000Z,16000.0
2023-09-18T07:52:38.000Z,16000.0
2023-09-18T07:53:39.000Z,16000.0
2023-09-18T07:54:38.000Z,16000.0
2023-09-18T07:55:38.000Z,16000.0
2023-09-18T07:56:39.000Z,16000.0
2023-09-18T07:57:38.000Z,16000.0
2023-09-18T07:58:38.000Z,16000.0
2023-09-18T07:59:39.000Z,16000.0
2023-09-18T08:00:38.000Z,16000.0
2023-09-18T08:01:39.000Z,16000.0
2023-09-18T08:02:39.000Z,16000.0
2023-09-18T08:03:38.000Z,16000.0
2023-09-18T08:04:39.000Z,16000.0
2023-09-18T08:05:38.000Z,16000.0
2023-09-18T08:06:38.000Z,16000.0
2023-09-18T08:07:39.000Z,16000.0
2023-09-18T08:08:38.000Z,16000.0
2023-09-18T08:09:39.000Z,16000.0
2023-09-18T08:10:38.000Z,16000.0
2023-09-18T08:11:38.000Z,16000.0
2023-09-18T08:12:39.000Z,16000.0
2023-09-18T08:13:38.000Z,16000.0
2023-09-18T08:14:39.000Z,16000.0
2023-09-18T08:15:39.000Z,16000.0
2023-09-18T08:16:38.000Z,16000.0
2023-09-18T08:17:39.000Z,16000.0
2023-09-18T08:18:38.000Z,16000.0
2023-09-18T08:19:38.000Z,16000.0
2023-09-18T08:20:39.000Z,16000.0
2023-09-18T08:21:38.000Z,16000.0
2023-09-18T08:22:39.000Z,16000.0
2023-09-18T08:23:38.000Z,16000.0
2023-09-18T08:24:38.000Z,16000.0
2023-09-18T08:25:39.000Z,16000.0
2023-09-18T08:26:38.000Z,16000.0
2023-09-18T08:27:39.000Z,16000.0
2023-09-18T08:28:39.000Z,16000.0
2023-09-18T08:29:38.000Z,16000.0
2023-09-18T08:30:39.000Z,16000.0
2023-09-18T08:31:38.000Z,16000.0
2023-09-18T08:32:38.000Z,16000.0
2023-09-18T08:33:39.000Z,16000.0
2023-09-18T08:34:38.000Z,16000.0
2023-09-18T08:35:39.000Z,16000.0
2023-09-18T08:36:38.000Z,16000.0
2023-09-18T08:37:38.000Z,16000.0
2023-09-18T08:38:39.000Z,16000.0
2023-09-18T08:39:38.000Z,16000.0
2023-09-18T08:40:38.000Z,16000.0
2023-09-18T08:41:39.000Z,16000.0
2023-09-18T08:42:38.000Z,16000.0
2023-09-18T08:43:39.000Z,16000.0
2023-09-18T08:44:38.000Z,16000.0
2023-09-18T08:45:38.000Z,16000.0
2023-09-18T08:46:39.000Z,16000.0
2023-09-18T08:47:38.000Z,16000.0
2023-09-18T08:48:39.000Z,16000.0
2023-09-18T08:49:38.000Z,16000.0
2023-09-18T08:50:38.000Z,16000.0
2023-09-18T08:51:39.000Z,16000.0
2023-09-18T08:52:38.000Z,16000.0
2023-09-18T08:53:39.000Z,16000.0
2023-09-18T08:54:39.000Z,16000.0
2023-09-18T08:55:38.000Z,16000.0
2023-09-18T08:56:39.000Z,16000.0
2023-09-18T08:57:39.000Z,16000.0
2023-09-18T08:58:38.000Z,16000.0
2023-09-18T08:59:39.000Z,16000.0
2023-09-18T09:00:38.000Z,16000.0
2023-09-18T09:01:38.000Z,16000.0
2023-09-18T09:02:39.000Z,16000.0
2023-09-18T09:03:38.000Z,16000.0
2023-09-18T09:04:38.000Z,16000.0
2023-09-18T09:05:39.000Z,16000.0
2023-09-18T09:06:38.000Z,16000.0
2023-09-18T09:07:39.000Z,16000.0
2023-09-18T09:08:38.000Z,16000.0
2023-09-18T09:09:38.000Z,16000.0
2023-09-18T09:10:39.000Z,16000.0
2023-09-18T09:11:38.000Z,16000.0
2023-09-18T09:12:39.000Z,16000.0
2023-09-18T09:13:39.000Z,16000.0
2023-09-18T09:14:38.000Z,16000.0
2023-09-18T09:15:39.000Z,16000.0
2023-09-18T09:16:38.000Z,16000.0
2023-09-18T09:17:38.000Z,16000.0
2023-09-18T09:18:39.000Z,16000.0
2023-09-18T09:19:38.000Z,16000.0
2023-09-18T09:20:39.000Z,16000.0
2023-09-18T09:21:38.000Z,16000.0
2023-09-18T09:22:38.000Z,16000.0
2023-09-18T09:23:39.000Z,16000.0
2023-09-18T09:24:38.000Z,16000.0
2023-09-18T09:25:39.000Z,16000.0
2023-09-18T09:26:39.000Z,16000.0
2023-09-18T09:27:38.000Z,16000.0
2023-09-18T09:28:39.000Z,16000.0
2023-09-18T09:29:38.000Z,16000.0
2023-09-18T09:30:38.000Z,16000.0
2023-09-18T09:31:39.000Z,16000.0
2023-09-18T09:32:38.000Z,16000.0
2023-09-18T09:33:39.000Z,16000.0
2023-09-18T09:34:38.000Z,16000.0
2023-09-18T09:35:38.000Z,16000.0
2023-09-18T09:36:39.000Z,16000.0
2023-09-18T09:37:38.000Z,16000.0
2023-09-18T09:38:39.000Z,16000.0
2023-09-18T09:39:39.000Z,16000.0
2023-09-18T09:40:38.000Z,16000.0
2023-09-18T09:41:39.000Z,16000.0
2023-09-18T09:42:38.000Z,16000.0
2023-09-18T09:43:38.000Z,16000.0
2023-09-18T09:44:39.000Z,16000.0
2023-09-18T09:45:38.000Z,16000.0
2023-09-18T09:46:39.000Z,16000.0
2023-09-18T09:47:38.000Z,16000.0
2023-09-18T09:48:38.000Z,16000.0
2023-09-18T09:49:39.000Z,16000.0
2023-09-18T09:50:38.000Z,16000.0
2023-09-18T09:51:39.000Z,16000.0
2023-09-18T09:52:39.000Z,16000.0
2023-09-18T09:53:38.000Z,16000.0
2023-09-18T09:54:39.000Z,16000.0
2023-09-18T09:55:38.000Z,16000.0
2023-09-18T09:56:38.000Z,16000.0
2023-09-18T09:57:39.000Z,16000.0
2023-09-18T09:58:38.000Z,16000.0
2023-09-18T09:59:38.000Z,16000.0
2023-09-18T10:00:39.000Z,16000.0
2023-09-18T10:01:38.000Z,16000.0
2023-09-18T10:02:38.000Z,16000.0
2023-09-18T10:03:39.000Z,16000.0
2023-09-18T10:04:38.000Z,16000.0
2023-09-18T10:05:39.000Z,16000.0
2023-09-18T10:06:38.000Z,16000.0
2023-09-18T10:07:38.000Z,16000.0
2023-09-18T10:08:39.000Z,16000.0
2023-09-18T10:09:38.000Z,16000.0
2023-09-18T10:10:39.000Z,16000.0
2023-09-18T10:11:38.000Z,16000.0
2023-09-18T10:12:38.000Z,16000.0
2023-09-18T10:13:39.000Z,16000.0
2023-09-18T10:14:38.000Z,16000.0
2023-09-18T10:15:38.000Z,16000.0
2023-09-18T10:16:39.000Z,16000.0
2023-09-18T10:17:38.000Z,16000.0
2023-09-18T10:18:39.000Z,16000.0
2023-09-18T10:19:38.000Z,16000.0
2023-09-18T10:20:38.000Z,16000.0
2023-09-18T10:21:39.000Z,16000.0
2023-09-18T10:22:38.000Z,16000.0
2023-09-18T10:23:39.000Z,16000.0
2023-09-18T10:24:38.000Z,16000.0
2023-09-18T10:25:38.000Z,16000.0
2023-09-18T10:26:39.000Z,16000.0
2023-09-18T10:27:38.000Z,16000.0
2023-09-18T10:28:38.000Z,16000.0
2023-09-18T10:29:39.000Z,16000.0
2023-09-18T10:30:38.000Z,16000.0
2023-09-18T10:31:39.000Z,16000.0
2023-09-18T10:32:38.000Z,16000.0
2023-09-18T10:33:38.000Z,16000.0
2023-09-18T10:34:39.000Z,16000.0
2023-09-18T10:35:38.000Z,16000.0
2023-09-18T10:36:39.000Z,16000.0
2023-09-18T10:37:39.000Z,16000.0
2023-09-18T10:38:38.000Z,16000.0
2023-09-18T10:39:39.000Z,16000.0
2023-09-18T10:40:38.000Z,16000.0
2023-09-18T10:41:38.000Z,16000.0
2023-09-18T10:42:39.000Z,16000.0
2023-09-18T10:43:38.000Z,16000.0
2023-09-18T10:44:39.000Z,16000.0
2023-09-18T10:45:38.000Z,16000.0
2023-09-18T10:46:38.000Z,16000.0
2023-09-18T10:47:39.000Z,16000.0
2023-09-18T10:48:38.000Z,16000.0
2023-09-18T10:49:39.000Z,16000.0
2023-09-18T10:50:38.000Z,16000.0
2023-09-18T10:51:38.000Z,16000.0
2023-09-18T10:52:39.000Z,16000.0
2023-09-18T10:53:38.000Z,16000.0
2023-09-18T10:54:38.000Z,16000.0
2023-09-18T10:55:39.000Z,16000.0
2023-09-18T10:56:38.000Z,16000.0
2023-09-18T10:57:38.000Z,16000.0
2023-09-18T10:58:39.000Z,16000.0
2023-09-18T10:59:38.000Z,16000.0
2023-09-18T11:00:39.000Z,16000.0
2023-09-18T11:01:38.000Z,16000.0
2023-09-18T11:02:38.000Z,16000.0
2023-09-18T11:03:39.000Z,16000.0
2023-09-18T11:04:38.000Z,16000.0
2023-09-18T11:05:38.000Z,16000.0
2023-09-18T11:06:39.000Z,16000.0
2023-09-18T11:07:38.000Z,16000.0
2023-09-18T11:08:39.000Z,16000.0
2023-09-18T11:09:38.000Z,16000.0
2023-09-18T11:10:38.000Z,16000.0
2023-09-18T11:11:39.000Z,16000.0
2023-09-18T11:12:38.000Z,16000.0
2023-09-18T11:13:39.000Z,16000.0
2023-09-18T11:14:39.000Z,16000.0
2023-09-18T11:15:38.000Z,16000.0
2023-09-18T11:16:39.000Z,16000.0
2023-09-18T11:17:38.000Z,16000.0
2023-09-18T11:18:38.000Z,16000.0
2023-09-18T11:19:39.000Z,16000.0
2023-09-18T11:20:38.000Z,16000.0
2023-09-18T11:21:39.000Z,16000.0
2023-09-18T11:22:38.000Z,16000.0
2023-09-18T11:23:38.000Z,16000.0
2023-09-18T11:24:39.000Z,16000.0
2023-09-18T11:25:38.000Z,16000.0
2023-09-18T11:26:39.000Z,16000.0
2023-09-18T11:27:38.000Z,16000.0
2023-09-18T11:28:38.000Z,16000.0
2023-09-18T11:29:39.000Z,16000.0
2023-09-18T11:30:38.000Z,16000.0
2023-09-18T11:31:38.000Z,16000.0
2023-09-18T11:32:39.000Z,16000.0
2023-09-18T11:33:38.000Z,16000.0
2023-09-18T11:34:39.000Z,16000.0
2023-09-18T11:35:38.000Z,16000.0
2023-09-18T11:36:38.000Z,16000.0
2023-09-18T11:37:39.000Z,16000.0
2023-09-18T11:38:38.000Z,16000.0
2023-09-18T11:39:39.000Z,16000.0
2023-09-18T11:40:39.000Z,16000.0
2023-09-18T11:41:38.000Z,16000.0
2023-09-18T11:42:39.000Z,16000.0
2023-09-18T11:43:38.000Z,16000.0
2023-09-18T11:44:38.000Z,16000.0
2023-09-18T11:45:39.000Z,16000.0
2023-09-18T11:46:38.000Z,16000.0
2023-09-18T11:47:39.000Z,16000.0
2023-09-18T11:48:38.000Z,16000.0
2023-09-18T11:49:38.000Z,16000.0
2023-09-18T11:50:39.000Z,16000.0
2023-09-18T11:51:38.000Z,16000.0
2023-09-18T11:52:39.000Z,16000.0
2023-09-18T11:53:38.000Z,16000.0
2023-09-18T11:54:38.000Z,16000.0
2023-09-18T11:55:39.000Z,16000.0
2023-09-18T11:56:38.000Z,16000.0
2023-09-18T11:57:38.000Z,16000.0
2023-09-18T11:58:39.000Z,16000.0
2023-09-18T11:59:38.000Z,16000.0
2023-09-18T12:00:38.000Z,16000.0
2023-09-18T12:01:39.000Z,16000.0
2023-09-18T12:02:38.000Z,16000.0
2023-09-18T12:03:39.000Z,16000.0
2023-09-18T12:04:38.000Z,16000.0
2023-09-18T12:05:38.000Z,16000.0
2023-09-18T12:06:39.000Z,16000.0
2023-09-18T12:07:38.000Z,16000.0
2023-09-18T12:08:38.000Z,16000.0
2023-09-18T12:09:39.000Z,16000.0